Terminal Aerodrome Forecast
Issued by NWS Glasgow, MT

Home | Current Version | Previous Version | Text Only | Print | Product List | Glossary On
Versions: 1 2 3 4 5 6 7 8 9 10 11 12 13 14
000
FTUS45 KGGW 311126 AAB
TAFGGW
TAF AMD
KGGW 311126Z 3111/0106 32015KT P6SM -SHRA OVC015
     FM311500 33021G29KT P6SM -SHRA OVC020
     FM312100 32022G31KT P6SM -SHRA BKN040
     FM010000 33017G25KT P6SM SCT040
     FM010300 32008KT P6SM SCT050=

USA.gov is the U.S. government's official web portal to all federal, state and local government web resources and services.